Aérodrome :
LOGIN :

S'inscrire | Disclaimer

   EN    FR    IT 

 










Légende :    VFR   VFR Marginal   IFR   IFR Intensif   IFR Très Intensif
Visi : 
Plafond : 
>= 8 km
>= 3000ft
5 à 8 km
1000 à 3000 ft
1500m à 5 km
500 à 1000 ft
800 à 1500m
200 à 500 ft
< 800m
< 200 ft
Symboles :   Orages  Brouillard  Fortes neiges  Fortes précipitations  Vent > 20 kt
SIGMETs :   Divers  Orages  Givrage  Turbulence  Onde Orograph.  Cendres Volcan.






- Altitude de l'aérodrome : 535 ft


LFBF - Toulouse / Francazal

DERNIER METAR :
  • 231000Z AUTO 26008KT 230V310 9999 SCT025/// BKN034/// BKN045/// ///TCU 17/10 Q1020

METARs EXPIRÉS :
  • 230930Z AUTO 29009KT 260V320 9999 FEW024 SCT037 BKN043 17/10 Q1020
  • 230900Z AUTO 29008KT 220V320 9999 SCT022 BKN030 16/10 Q1020
  • 230830Z AUTO 29010KT 250V310 9999 FEW021 SCT030 BKN056 16/11 Q1020
  • 230800Z AUTO 28008KT 250V310 9999 BKN017 BKN023 BKN030 15/12 Q1020
  • 230730Z AUTO 28009KT 9999 BKN017 14/11 Q1020
  • 230700Z AUTO 27008KT 240V310 9999 BKN013 BKN068 15/12 Q1020
  • 230630Z AUTO 26008KT 230V290 9999 FEW010 BKN074 14/11 Q1020
  • 230600Z AUTO 26004KT CAVOK 13/12 Q1020
  • 230530Z AUTO 26004KT 220V280 9999 FEW017 BKN066 BKN076 13/12 Q1020

TAF N/A



MET'MAP, la Météo Aéronautique d'un coup d'oeil ! - Copyright ORBIFLY Décembre 2007 - Disclaimer

ORBIFLY MET'MAP TEAM :

Programmation & Développement : Alexandra Zaïnal
Sur une idée originale de : Baudouin d'Aumeries
Soutien technique & logistique : Manuel Goepfert
Assistance : Marc-Olivier Méhu




SOURCES & CREDITS :

   NOAA